• Join FlightAware (Why Join?)
  • Login
  • US Flag 
03:24AM EDT


 

Airport Tracker/Info


-or-


 

Live Flight TrackerFlight Track Log ✈ UAL538 ✈ 22-Apr-2013 ✈ KPHX - KDEN

Flight Track Log - Related Links

Times and Time Zones

All times are in EDT time to prevent confusion due to time zone crossing. See the UAL538 flight status page for this flight to view local times or setup timezone preferences in your user account.

Time Position Orientation Groundspeed Altitude Reporting Facility
EDT Latitude Longitude Course Direction KTS MPH feet Rate Location/Type
08:09PM 33.4333 -112.0333 20° North 162 186 2,000  Level Phoenix TRACON
08:10PM 33.4333 -112.1167 270° West 228 262 4,000 2,160 Climbing Phoenix TRACON
08:12PM 33.7529 -111.8601 15° North  Level FlightAware Approximate
08:12PM 33.4572 -112.1917 291° West 258 297 7,300  Level Albuquerque Center
08:13PM 33.8607 -111.8163 20° North  Level FlightAware Approximate
08:13PM 33.5311 -112.1781 North 279 321 10,700  Level Albuquerque Center
08:14PM 33.9677 -111.7694 20° North  Level FlightAware Approximate
08:14PM 33.6025 -112.1161 36° Northeast 317 365 14,000  Level Albuquerque Center
08:15PM 33.6792 -112.0500 36° Northeast 342 394 16,200 1,800 Climbing Albuquerque Center
08:16PM 33.7733 -111.9678 36° Northeast 412 474 17,800 2,460 Climbing Albuquerque Center
08:17PM 33.8997 -111.8603 35° Northeast 454 522 21,400 2,880 Climbing Albuquerque Center
08:18PM 34.0061 -111.7694 35° Northeast 468 539 23,800 1,980 Climbing Albuquerque Center
08:19PM 34.1003 -111.6764 39° Northeast 492 566 25,500 1,320 Climbing Albuquerque Center
08:20PM 34.2022 -111.5594 43° Northeast 506 582 26,600 1,200 Climbing Albuquerque Center
08:21PM 34.3247 -111.4197 43° Northeast 506 582 28,000 1,200 Climbing Albuquerque Center
08:22PM 34.4261 -111.3036 43° Northeast 503 579 29,200 1,140 Climbing Albuquerque Center
08:23PM 34.5258 -111.1881 44° Northeast 499 574 30,400 960 Climbing Albuquerque Center
08:24PM 34.6264 -111.0725 43° Northeast 498 573 31,300 960 Climbing Albuquerque Center
08:25PM 34.7275 -110.9553 44° Northeast 501 577 32,400 1,200 Climbing Albuquerque Center
08:26PM 34.8261 -110.8400 44° Northeast 496 571 33,800 1,080 Climbing Albuquerque Center
08:27PM 34.9394 -110.7100 43° Northeast 493 567 34,700 540 Climbing Albuquerque Center
08:28PM 35.0486 -110.5811 44° Northeast 490 564 35,000 120 Climbing Albuquerque Center
08:29PM 35.1447 -110.4697 43° Northeast 494 568 35,000  Level Albuquerque Center
08:30PM 35.2406 -110.3561 44° Northeast 498 573 35,000  Level Albuquerque Center
08:31PM 35.3511 -110.2247 44° Northeast 497 572 35,000  Level Albuquerque Center
08:32PM 35.4444 -110.1136 44° Northeast 491 565 35,000  Level Albuquerque Center
08:33PM 35.5547 -109.9828 44° Northeast 492 566 35,000  Level Albuquerque Center
08:34PM 35.6478 -109.8711 44° Northeast 491 565 35,000  Level Albuquerque Center
08:35PM 35.7475 -109.7283 49° Northeast 493 567 35,000  Level Albuquerque Center
08:36PM 35.8275 -109.5972 53° Northeast 497 572 35,000  Level Albuquerque Center
08:37PM 35.9094 -109.4675 52° Northeast 499 574 35,000  Level Albuquerque Center
08:38PM 36.0053 -109.3133 52° Northeast 504 580 35,000  Level Albuquerque Center
08:39PM 36.0878 -109.1808 52° Northeast 504 580 35,000  Level Albuquerque Center
08:40PM 36.1708 -109.0467 52° Northeast 507 583 35,000  Level Albuquerque Center
08:42PM 36.2686 -108.8911 52° Northeast 505 581 35,000  Level Denver Center
08:43PM 36.3631 -108.7364 53° Northeast 499 574 35,000  Level Denver Center
08:44PM 36.4456 -108.6000 53° Northeast 509 586 35,000  Level Denver Center
08:45PM 36.5408 -108.4428 53° Northeast 509 586 35,000  Level Denver Center
08:46PM 36.6231 -108.3064 53° Northeast 513 590 35,000  Level Denver Center
08:47PM 36.7061 -108.1706 53° Northeast 514 592 35,000  Level Denver Center
08:48PM 36.7828 -108.0694 47° Northeast 506 582 35,000  Level Denver Center
08:49PM 36.9192 -107.9292 39° Northeast 497 572 35,000  Level Denver Center
08:50PM 37.0411 -107.8103 38° Northeast 499 574 35,000  Level Denver Center
08:51PM 37.1461 -107.7061 38° Northeast 501 577 35,000  Level Denver Center
08:52PM 37.2475 -107.6017 39° Northeast 493 567 35,000  Level Denver Center
08:53PM 37.3692 -107.4825 38° Northeast 496 571 35,000  Level Denver Center
08:54PM 37.4736 -107.3778 38° Northeast 501 577 35,000  Level Denver Center
08:55PM 37.5956 -107.2514 39° Northeast 507 583 35,000  Level Denver Center
08:56PM 37.7000 -107.1456 39° Northeast 503 579 35,000  Level Denver Center
08:57PM 37.8211 -107.0236 38° Northeast 494 568 35,000  Level Denver Center
08:58PM 37.9242 -106.9164 39° Northeast 501 577 35,000 -300 Level Denver Center
08:59PM 38.0286 -106.8083 39° Northeast 503 579 34,500 -780 Descending Denver Center
09:00PM 38.1511 -106.6819 39° Northeast 508 585 33,500 -1,020 Descending Denver Center
09:01PM 38.2531 -106.5739 40° Northeast 503 579 32,500 -1,020 Descending Denver Center
09:02PM 38.3564 -106.4447 44° Northeast 504 580 31,500 -780 Descending Denver Center
09:03PM 38.4575 -106.3197 44° Northeast 506 582 31,000 -300 Descending Denver Center
09:04PM 38.5575 -106.1953 44° Northeast 503 579 30,900 -1,320 Descending Denver Center
09:05PM 38.6672 -106.0553 45° Northeast 502 578 28,400 -2,160 Descending Denver Center
09:06PM 38.7636 -105.9353 44° Northeast 496 571 26,500 -1,860 Descending Denver Center
09:07PM 38.8683 -105.8039 44° Northeast 474 545 24,700 -1,980 Descending Denver Center
09:08PM 38.9517 -105.6972 45° Northeast 449 517 22,500 -2,100 Descending Denver Center
09:09PM 39.0489 -105.5728 45° Northeast 441 507 20,400 -1,800 Descending Denver Center
09:10PM 39.1219 -105.4794 45° Northeast 429 494 18,900 -1,200 Descending Denver Center
09:12PM 39.2447 -105.4019 26° Northeast 366 421 17,700 -1,200 Descending Denver Center
09:13PM 39.3450 -105.3611 17° North 351 404 16,300 -1,320 Descending Denver Center
09:14PM 39.3842 -105.2522 65° Northeast 356 410 15,000 -1,020 Descending Denver Center
09:15PM 39.3878 -105.1303 88° East 343 395 14,300 -660 Descending Denver Center
09:16PM 39.3894 -105.0167 89° East 299 344 13,700 -660 Descending Denver Center
09:17PM 39.3936 -104.9172 87° East 284 327 13,000 -540 Descending Denver Center
09:18PM 39.4011 -104.8147 85° East 272 313 12,600 -300 Descending Denver Center
09:19PM 39.4075 -104.7289 84° East 241 277 12,400 -540 Descending Denver Center
09:20PM 39.4519 -104.6836 38° Northeast 211 243 11,500 -900 Descending Denver Center
09:21PM 39.5081 -104.6661 14° North 186 214 10,600 -780 Descending Denver Center
09:22PM 39.5575 -104.6639 North 175 201 10,000 -300 Descending Denver Center
09:23PM 39.6072 -104.6633 360° North 178 205 10,000 -480 Level Denver Center
09:24PM 39.6503 -104.6628 North 181 208 9,100 -960 Descending Denver Center
09:25PM 39.7103 -104.6619 North 177 204 7,900 -1,020 Descending Denver Center